Tiempo atmosférico en la estación meteorológica de Carcaixent, València/Valencia (25 m.)

Fecha
DESCASC
Temp. máxima en grados centígrados (hora)
DESCASC
Temp. mínima en grados centígrados (hora)
DESCASC
Temp. media en grados centígrados
DESCASC
Racha de viento máxima en m/sg (hora)
DESCASC
Velocidad máxima media en intervalos de 10 minutos(hora)
DESCASC
Precipitaciones diarias en mm
DESCASC
Precipitaciones de 00:00 a 06:00 en mm
DESCASC
Precipitaciones de 06:00 a 12:00 en mm
DESCASC
Precipitaciones de 12:00 a 18:00 en mm
DESCASC
Precipitaciones de 18:00 a 24:00 en mm
DESCASC
17-09-2017 28.7 (18:10) 12.8 (04:40) 20.8 7.5 (16:10) 4.44 (16:30) 0 0 0 0 0
16-09-2017 23.7 (14:20) 15.6 (04:10) 19.7 8.06 (16:50) 5 (16:50) 0.2 0 0.2 0 0
15-09-2017 23.8 (13:30) 15.6 (20:10) 19.7 10 (11:30) 5.83 (13:50) 3.2 0 0 1.4 1.8
14-09-2017 38.4 (17:20) 14.6 (00:00) 26.5 9.72 (18:30) 5.56 (18:30) 0 0 0 0 0
13-09-2017 33 (15:30) 15.6 (00:00) 24.3 7.5 (18:00) 4.44 (16:40) 0 0 0 0 0
12-09-2017 28.9 (14:00) 14.5 (00:00) 21.7 9.17 (15:00) 5.28 (18:00) 0 0 0 0 0
11-09-2017 37.6 (16:20) 16.3 (00:00) 26.9 8.89 (17:30) 4.72 (17:30) 0 0 0 0 0
10-09-2017 29.5 (17:00) 13.5 (00:00) 21.5 9.72 (01:50) 5.28 (01:50) 0 0 0 0 0
09-09-2017 30.1 (13:10) 18.6 (00:00) 24.4 11.39 (18:50) 6.11 (19:00) 0 0 0 0 0
08-09-2017 31.6 (15:30) 21.7 (00:00) 26.7 8.33 (15:30) 4.72 (16:20) 0 0 0 0 0
07-09-2017 29.9 (14:30) 20.4 (00:00) 25.1 8.33 (13:40) 4.72 (13:40) 0 0 0 0 0
06-09-2017 31.3 (16:00) 20.5 (00:00) 25.9 7.78 (13:50) 4.44 (16:10) 0 0 0 0 0
05-09-2017 32.6 (15:30) 21.6 (00:00) 27.1 8.33 (17:40) 4.72 (17:40) 0 0 0 0 0
04-09-2017 31.8 (16:50) 18.5 (00:00) 25.1 8.33 (15:10) 5.28 (14:50) 0 0 0 0 0
03-09-2017 34.5 (17:50) 16.9 (00:00) 25.7 8.33 (20:40) 4.72 (21:00) 0 0 0 0 0
02-09-2017 30.1 (15:20) 19.3 (00:00) 24.7 7.5 (16:30) 4.72 (16:30) 1.8 1.8 0 0 0
01-09-2017 28.2 (16:20) 20 (00:00) 24.1 7.22 (20:30) 3.61 (20:30) 0 0 0 0 0
31-08-2017 30 (17:00) 20.8 (00:00) 25.4 5.83 (16:50) 3.33 (16:40) 0.4 0 0.4 0 0
30-08-2017 29.3 (17:50) 19 (00:00) 24.1 8.06 (16:00) 5 (16:00) 6 5.2 0.6 0.2 0
29-08-2017 23.7 (12:40) 19.7 (00:00) 21.7 4.17 (16:40) 2.5 (16:40) 7 0.2 0 3.4 3.4
28-08-2017 31.9 (13:00) 21.4 (00:00) 26.6 6.94 (16:20) 4.17 (16:20) 0 0 0 0 0
27-08-2017 30.8 (18:20) 21.7 (00:00) 26.3 6.67 (15:00) 4.17 (15:00) 0 0 0 0 0
26-08-2017 32.9 (14:30) 22.9 (00:00) 27.9 8.06 (15:00) 5 (15:00) 0 0 0 0 0
25-08-2017 33.5 (17:10) 21.5 (00:00) 27.5 7.78 (15:00) 5 (16:00) 0 0 0 0 0
24-08-2017 33.4 (15:00) 20.5 (00:00) 27 6.94 (15:50) 4.17 (16:30) 0 0 0 0 0
23-08-2017 34.2 (15:20) 18.9 (00:00) 26.6 8.33 (18:10) 5.28 (17:50) 0 0 0 0 0
22-08-2017 36.1 (17:10) 17.6 (00:00) 26.8 7.5 (20:20) 4.44 (20:20) 0 0 0 0 0

Gráficas

Temp. máximas Temp. mínimas Temp. medias Precipitaciones Rachas de viento máximas Velocidades máximas media en intervalos de 10 minutos

Datos horarios

Fecha y hora oficial Temperatura (ºC) Velocidad del viento (km/h) Dirección del viento Racha (km/h) Dirección de racha Precipitación (mm) Presión (hPa) Tendencia (hPa) Humedad (%)
2017-09-20 23:00:00 21.6 3 Noroeste 9 Norte 0 -- -- 84
2017-09-20 22:00:00 22.4 6 Norte 16 Noroeste 0 -- -- 82
2017-09-20 21:00:00 23.3 10 Noroeste 17 Norte 0 -- -- 80
2017-09-20 20:00:00 25.3 10 Norte 20 Norte 0 -- -- 72
2017-09-20 19:00:00 27.4 12 Norte 20 Norte 0 -- -- 62
2017-09-20 18:00:00 28.7 8 Este 23 Sudeste 0 -- -- 52
2017-09-20 17:00:00 27.8 17 Sudeste 27 Sudeste 0 -- -- 58
2017-09-20 16:00:00 28.5 15 Sudeste 29 Sudeste 0 -- -- 54
2017-09-20 15:00:00 29.7 11 Nordeste 20 Nordeste 0 -- -- 53
2017-09-20 14:00:00 28 5 Nordeste 11 Este 0 -- -- 48
2017-09-20 13:00:00 26.5 6 Sudoeste 12 Sudoeste 0 -- -- 57
2017-09-20 12:00:00 24.8 6 Sur 18 Sur 0 -- -- 63
2017-09-20 11:00:00 22.5 4 Oeste 9 Oeste 0 -- -- 75
2017-09-20 10:00:00 19.9 3 Sudoeste 8 Sudoeste 0 -- -- 83
2017-09-20 09:00:00 18.6 4 Sudoeste 9 Oeste 0 -- -- 89
2017-09-20 08:00:00 17.5 4 Sur 7 Sur 0 -- -- 89
2017-09-20 07:00:00 18.2 5 Sur 9 Sur 0 -- -- 89
2017-09-20 06:00:00 18 4 Sur 9 Sur 0 -- -- 91
2017-09-20 05:00:00 18 2 Sudoeste 6 Oeste 0 -- -- 93
2017-09-20 04:00:00 17.1 0 Calma 6 Sur 0 -- -- 93
2017-09-20 03:00:00 16.5 0 Calma 2 Sudeste 0 -- -- 92
2017-09-20 02:00:00 16.5 3 Sudoeste 6 Sur 0 -- -- 92
2017-09-20 01:00:00 16.7 5 Sur 7 Sudeste 0 -- -- 89
2017-09-20 00:00:00 17.6 3 Sur 5 Sur 0 -- -- 86
2017-09-19 23:00:00 18.6 0 Calma 8 Sur 0 -- -- 84
2017-09-19 22:00:00 20.4 0 Calma 12 Nordeste 0 -- -- 76
2017-09-19 21:00:00 22.5 8 Nordeste 14 Norte 0 -- -- 71
2017-09-19 20:00:00 23.9 5 Nordeste 26 Este 0 -- -- 66
2017-09-19 19:00:00 25.7 10 Este 27 Sudeste 0 -- -- 59
2017-09-19 18:00:00 27.4 14 Este 26 Este 0 -- -- 54
2017-09-19 17:00:00 28.1 15 Este 27 Sudeste 0 -- -- 51
2017-09-19 16:00:00 29.5 12 Sudeste 20 Este 0 -- -- 41
2017-09-19 15:00:00 29.9 9 Nordeste 23 Nordeste 0 -- -- 35
2017-09-19 14:00:00 28.3 5 Sudoeste 16 Sur 0 -- -- 37
2017-09-19 13:00:00 27.4 5 Sur 13 Sur 0 -- -- 43
2017-09-19 12:00:00 25.3 5 Sudoeste 16 Sur 0 -- -- 57
2017-09-19 11:00:00 23.2 6 Sudoeste 14 Sur 0 -- -- 69
2017-09-19 10:00:00 20.6 6 Sur 15 Sudoeste 0 -- -- 76
2017-09-19 09:00:00 18 8 Sur 13 Sur 0 -- -- 93
2017-09-19 08:00:00 15.8 7 Sur 13 Sur 0 -- -- 95
2017-09-19 07:00:00 14.6 4 Sur 8 Sur 0 -- -- 93
2017-09-19 06:00:00 14.5 3 Sur 4 Sur 0 -- -- 90
2017-09-19 05:00:00 15.3 2 Sudeste 4 Sudoeste 0 -- -- 91
2017-09-19 04:00:00 15.9 2 Sur 5 Sudeste 0 -- -- 89
2017-09-19 03:00:00 16.7 2 Sur 4 Sudeste 0 -- -- 87
2017-09-19 02:00:00 17.9 3 Este 8 Sudoeste 0 -- -- 86
2017-09-19 01:00:00 19.4 2 Sudoeste 5 Nordeste 0 -- -- 83
2017-09-19 00:00:00 20.4 5 Nordeste 10 Nordeste 0 -- -- 82
2017-09-18 23:00:00 21 3 Norte 9 Noroeste 0 -- -- 80
2017-09-18 22:00:00 21.2 5 Nordeste 12 Nordeste 0 -- -- 77
2017-09-18 21:00:00 22.1 7 Nordeste 15 Nordeste 0 -- -- 76
2017-09-18 20:00:00 23.4 7 Nordeste 32 Este 0 -- -- 67
2017-09-18 19:00:00 25.3 14 Este 37 Este 0 -- -- 53
2017-09-18 18:00:00 27.7 18 Este 30 Este 0 -- -- 42
2017-09-18 17:00:00 31.6 9 Norte 32 Noroeste 0 -- -- 32
2017-09-18 16:00:00 32.2 18 Noroeste 40 Noroeste 0 -- -- 24
2017-09-18 15:00:00 31.9 11 Oeste 29 Sudoeste 0 -- -- 22
2017-09-18 14:00:00 30.4 16 Noroeste 27 Noroeste 0 -- -- 22
2017-09-18 13:00:00 28.9 7 Este 18 Sudoeste 0 -- -- 28
2017-09-18 12:00:00 27.2 7 Oeste 15 Oeste 0 -- -- 31
2017-09-18 11:00:00 24 2 Nordeste 7 Norte 0 -- -- 43
2017-09-18 10:00:00 21.4 4 Sudoeste 10 Sur 0 -- -- 66
2017-09-18 09:00:00 18.4 5 Sur 12 Sudoeste 0 -- -- 87
2017-09-18 08:00:00 16.4 5 Sur 12 Sur 0 -- -- 91
2017-09-18 07:00:00 16.6 9 Sur 13 Sur 0 -- -- 93
2017-09-18 06:00:00 17 5 Sudoeste 13 Sur 0 -- -- 92
2017-09-18 05:00:00 16.3 6 Sudoeste 10 Sur 0 -- -- 92
2017-09-18 04:00:00 16 0 Calma 6 Sudeste 0 -- -- 87
2017-09-18 03:00:00 17.2 2 Este 6 Sudeste 0 -- -- 86
2017-09-18 02:00:00 18.8 0 Calma 9 Noroeste 0 -- -- 83
2017-09-18 01:00:00 20.8 6 Oeste 12 Sur 0 -- -- 77
2017-09-18 00:00:00 20.5 3 Sudeste 10 Sur 0 -- -- 76
2017-09-17 23:00:00 21.1 3 Sudoeste 8 Sur 0 -- -- 76
2017-09-17 22:00:00 22.3 3 Sudeste 7 Sudeste 0 -- -- 74
2017-09-17 21:00:00 23.7 4 Sur 13 Oeste 0 -- -- 70
2017-09-17 20:00:00 25.8 4 Sudeste 13 Este 0 -- -- 59
2017-09-17 19:00:00 26.9 9 Este 16 Nordeste 0 -- -- 55
2017-09-17 18:00:00 28.5 9 Este 24 Sudeste 0 -- -- 49
2017-09-17 17:00:00 28 14 Este 27 Este 0 -- -- 50
2017-09-17 16:00:00 28.1 13 Este 23 Este 0 -- -- 49
2017-09-17 15:00:00 28.3 13 Nordeste 24 Norte 0 -- -- 49
2017-09-17 14:00:00 26.6 4 Este 14 Norte 0 -- -- 50
2017-09-17 13:00:00 25.4 5 Sur 16 Sur 0 -- -- 54
2017-09-17 12:00:00 23.6 6 Sudoeste 15 Sudoeste 0 -- -- 59
2017-09-17 11:00:00 21.3 3 Sudoeste 9 Sur 0 -- -- 68
2017-09-17 10:00:00 18.8 4 Sudoeste 10 Sudoeste 0 -- -- 75
2017-09-17 09:00:00 16.1 4 Sur 8 Sur 0 -- -- 91
2017-09-17 08:00:00 13.1 4 Sur 9 Sudoeste 0 -- -- 92
2017-09-17 07:00:00 14.1 4 Sur 10 Sur 0 -- -- 91
2017-09-17 06:00:00 14.4 6 Sur 13 Sur 0 -- -- 93
2017-09-17 05:00:00 13.1 8 Sur 10 Sur 0 -- -- 94
2017-09-17 04:00:00 13.3 3 Sur 8 Sur 0 -- -- 92
2017-09-17 03:00:00 13.7 0 Calma 5 Este 0 -- -- 92
2017-09-17 02:00:00 14 0 Calma 5 Sur 0 -- -- 88
2017-09-17 01:00:00 15.1 3 Sudeste 6 Sudeste 0 -- -- 87
2017-09-17 00:00:00 16.6 3 Sudeste 10 Oeste 0 -- -- 84
2017-09-16 23:00:00 17.5 3 Oeste 9 Oeste 0 -- -- 82
2017-09-16 22:00:00 17.6 5 Oeste 11 Nordeste 0 -- -- 78
2017-09-16 21:00:00 18.3 6 Nordeste 12 Nordeste 0 -- -- 73
2017-09-16 20:00:00 20.3 4 Sudeste 15 Sudeste 0 -- -- 64
2017-09-16 19:00:00 21.9 10 Sudeste 24 Sudeste 0 -- -- 55
2017-09-16 18:00:00 22.5 14 Sudeste 29 Sudeste 0 -- -- 53
2017-09-16 17:00:00 22.5 15 Sudeste 29 Este 0 -- -- 53
2017-09-16 16:00:00 21.7 13 Este 25 Nordeste 0 -- -- 59
2017-09-16 15:00:00 22.6 11 Nordeste 25 Nordeste 0 -- -- 55
2017-09-16 14:00:00 22.7 6 Nordeste 15 Norte 0 -- -- 56
2017-09-16 13:00:00 21.7 8 Norte 18 Norte 0 -- -- 63
2017-09-16 12:00:00 20.3 6 Norte 13 Nordeste 0 -- -- 68
2017-09-16 11:00:00 18.8 3 Norte 6 Este 0 -- -- 79
2017-09-16 10:00:00 17.6 2 Este 5 Nordeste 0 -- -- 88
2017-09-16 09:00:00 16.4 0 Calma 5 Sudoeste 0 -- -- 93
2017-09-16 08:00:00 16.1 3 Sudoeste 6 Sur 0.2 -- -- 93
2017-09-16 07:00:00 16 3 Sur 4 Sur 0 -- -- 94
2017-09-16 06:00:00 15.9 3 Sur 6 Sudeste 0 -- -- 94
2017-09-16 05:00:00 15.7 3 Sur 6 Sudoeste 0 -- -- 94
2017-09-16 04:00:00 15.7 3 Sur 6 Sur 0 -- -- 94
2017-09-16 03:00:00 16 4 Sur 8 Sudeste 0 -- -- 94
2017-09-16 02:00:00 16 2 Sur 5 Sur 0 -- -- 94
2017-09-16 01:00:00 15.8 0 Calma 8 Oeste 0 -- -- 94
2017-09-16 00:00:00 15.7 5 Sudoeste 12 Noroeste 0 -- -- 94
2017-09-15 23:00:00 15.7 5 Sudoeste 12 Noroeste 0 -- -- 94
2017-09-15 22:00:00 15.7 6 Norte 21 Nordeste 0.2 -- -- 93
2017-09-15 21:00:00 16 6 Nordeste 18 Norte 0.4 -- -- 95
2017-09-15 20:00:00 15.7 11 Norte 29 Nordeste 0.6 -- -- 93
2017-09-15 19:00:00 16.8 16 Nordeste 31 Nordeste 0.6 -- -- 92
2017-09-15 18:00:00 17.6 17 Nordeste 33 Nordeste 0 -- -- 89
2017-09-15 17:00:00 18.7 18 Nordeste 36 Nordeste 0 -- -- 86
2017-09-15 16:00:00 19.2 19 Nordeste 34 Nordeste 0.2 -- -- 87
2017-09-15 15:00:00 20 16 Nordeste 30 Nordeste 1.2 -- -- 88
2017-09-15 14:00:00 22.1 20 Nordeste 35 Nordeste 0 -- -- 74
2017-09-15 13:00:00 23.6 18 Nordeste 32 Nordeste 0 -- -- 68
2017-09-15 12:00:00 22.2 19 Nordeste 36 Nordeste 0 -- -- 71
2017-09-15 11:00:00 21.4 18 Nordeste 32 Nordeste 0 -- -- 73
2017-09-15 10:00:00 21.7 16 Nordeste 31 Nordeste 0 -- -- 77
2017-09-15 09:00:00 21.2 12 Nordeste 27 Nordeste 0 -- -- 80
2017-09-15 08:00:00 21 10 Nordeste 27 Norte 0 -- -- 84
2017-09-15 07:00:00 21.5 11 Nordeste 22 Norte 0 -- -- 79
2017-09-15 06:00:00 21.7 10 Nordeste 22 Nordeste 0 -- -- 71
2017-09-15 05:00:00 22.1 11 Nordeste 22 Nordeste 0 -- -- 69
2017-09-15 04:00:00 22.2 11 Nordeste 23 Nordeste 0 -- -- 71
2017-09-15 03:00:00 21.2 5 Sudeste 12 Norte 0 -- -- 85
2017-09-15 02:00:00 19.8 5 Nordeste 9 Norte 0 -- -- 89
2017-09-15 01:00:00 19.5 2 Sudeste 11 Norte 0 -- -- 84
2017-09-15 00:00:00 20 0 Calma 4 Norte 0 -- -- 80
2017-09-14 23:00:00 21 0 Calma 8 Sudeste 0 -- -- 76
2017-09-14 22:00:00 23.5 3 Noroeste 13 Norte 0 -- -- 70
2017-09-14 21:00:00 25.5 7 Norte 26 Nordeste 0 -- -- 58
2017-09-14 20:00:00 26.7 15 Nordeste 31 Nordeste 0 -- -- 56
2017-09-14 19:00:00 29.2 19 Norte 35 Nordeste 0 -- -- 53
2017-09-14 18:00:00 35.1 11 Nordeste 31 Norte 0 -- -- 33
2017-09-14 17:00:00 38.1 10 Oeste 20 Oeste 0 -- -- 20
2017-09-14 16:00:00 38 7 Oeste 22 Norte 0 -- -- 21
2017-09-14 15:00:00 37.3 6 Oeste 23 Noroeste 0 -- -- 22
2017-09-14 14:00:00 36.5 10 Noroeste 27 Noroeste 0 -- -- 24
2017-09-14 13:00:00 34.4 3 Norte 15 Sur 0 -- -- 31
2017-09-14 12:00:00 31.9 8 Sudoeste 19 Sudoeste 0 -- -- 35
2017-09-14 11:00:00 28 11 Sur 19 Sur 0 -- -- 44
2017-09-14 10:00:00 24 8 Sur 15 Sur 0 -- -- 58
2017-09-14 09:00:00 20 5 Sur 10 Sur 0 -- -- 74
2017-09-14 08:00:00 15.6 7 Sur 10 Sur 0 -- -- 85
2017-09-14 07:00:00 14.7 5 Sur 7 Sur 0 -- -- 89
2017-09-14 06:00:00 15 4 Sur 6 Sudoeste 0 -- -- 88
2017-09-14 05:00:00 15.6 2 Sur 6 Sudoeste 0 -- -- 87
2017-09-14 04:00:00 16.2 0 Calma 3 Sur 0 -- -- 85
2017-09-14 03:00:00 17.2 3 Sudoeste 6 Sur 0 -- -- 82
2017-09-14 02:00:00 18.1 0 Calma 6 Sudeste 0 -- -- 82
2017-09-14 01:00:00 19 0 Calma 5 Noroeste 0 -- -- 81
2017-09-14 00:00:00 20.3 3 Sudeste 6 Sudeste 0 -- -- 80
2017-09-13 23:00:00 21.7 0 Calma 5 Sur 0 -- -- 79
2017-09-13 22:00:00 23.8 3 Sudeste 6 Norte 0 -- -- 73
2017-09-13 21:00:00 26.1 5 Norte 17 Noroeste 0 -- -- 66
2017-09-13 20:00:00 29.5 7 Oeste 21 Este 0 -- -- 52
2017-09-13 19:00:00 31.3 9 Sudeste 23 Sudeste 0 -- -- 40
2017-09-13 18:00:00 31.8 14 Este 27 Este 0 -- -- 41
2017-09-13 17:00:00 31.6 15 Sudeste 27 Sudeste 0 -- -- 43
2017-09-13 16:00:00 32.5 11 Sudeste 25 Nordeste 0 -- -- 41
2017-09-13 15:00:00 32.1 10 Norte 20 Nordeste 0 -- -- 46
2017-09-13 14:00:00 30.7 10 Nordeste 19 Nordeste 0 -- -- 47
2017-09-13 13:00:00 30.3 7 Norte 18 Nordeste 0 -- -- 44
2017-09-13 12:00:00 28.1 5 Sur 12 Sudeste 0 -- -- 47
2017-09-13 11:00:00 25.4 4 Sudoeste 11 Sudoeste 0 -- -- 58
2017-09-13 10:00:00 21.7 6 Sudoeste 10 Sudoeste 0 -- -- 69
2017-09-13 09:00:00 18.9 5 Sur 9 Sudoeste 0 -- -- 80
2017-09-13 08:00:00 15.8 4 Sur 8 Sur 0 -- -- 89
2017-09-13 07:00:00 15.9 4 Sur 9 Sur 0 -- -- 87
2017-09-13 06:00:00 16.3 5 Sur 9 Sur 0 -- -- 86
2017-09-13 05:00:00 16.6 6 Sur 12 Sur 0 -- -- 87
2017-09-13 04:00:00 16 6 Sur 9 Sur 0 -- -- 88
2017-09-13 03:00:00 16.1 4 Sur 6 Sur 0 -- -- 87
2017-09-13 02:00:00 16.6 3 Sur 6 Sur 0 -- -- 85
2017-09-13 01:00:00 17.4 4 Sur 7 Sur 0 -- -- 84
2017-09-13 00:00:00 18.4 3 Sudoeste 9 Sur 0 -- -- 80
2017-09-12 23:00:00 19.5 4 Sudeste 8 Sur 0 -- -- 75
2017-09-12 22:00:00 21.6 3 Sudeste 12 Nordeste 0 -- -- 64
2017-09-12 21:00:00 22.8 6 Este 26 Sudeste 0 -- -- 60
2017-09-12 20:00:00 23.8 12 Este 29 Este 0 -- -- 61
2017-09-12 19:00:00 25.1 14 Este 33 Este 0 -- -- 57
2017-09-12 18:00:00 26.2 19 Este 33 Sudeste 0 -- -- 53
2017-09-12 17:00:00 27.6 15 Sudeste 32 Este 0 -- -- 50
2017-09-12 16:00:00 28.5 16 Este 30 Este 0 -- -- 49
2017-09-12 15:00:00 28.3 18 Sudeste 33 Sudeste 0 -- -- 50
2017-09-12 14:00:00 28.9 14 Este 28 Este 0 -- -- 51
2017-09-12 13:00:00 27.8 17 Este 26 Este 0 -- -- 55
2017-09-12 12:00:00 27.2 5 Norte 15 Norte 0 -- -- 58
2017-09-12 11:00:00 26.5 4 Sudoeste 9 Sudoeste 0 -- -- 56
2017-09-12 10:00:00 24.3 5 Oeste 10 Sur 0 -- -- 57
2017-09-12 09:00:00 19.5 3 Sur 8 Sur 0 -- -- 68
2017-09-12 08:00:00 14.7 3 Sur 5 Sur 0 -- -- 84
2017-09-12 07:00:00 14.7 2 Sudoeste 5 Sur 0 -- -- 82
2017-09-12 06:00:00 15.1 0 Calma 4 Sudeste 0 -- -- 81
2017-09-12 05:00:00 15.7 0 Calma -- -- 0 -- -- 75
2017-09-12 04:00:00 16.5 0 Calma 6 Este 0 -- -- 73
2017-09-12 03:00:00 17.2 2 Sudeste 8 Oeste 0 -- -- 69
2017-09-12 02:00:00 18.8 3 Sudoeste 8 Este 0 -- -- 59
2017-09-12 01:00:00 20.5 4 Este 9 Sudeste 0 -- -- 52
2017-09-12 00:00:00 22.8 9 Sur 17 Sur 0 -- -- 41
2017-09-11 23:00:00 22 5 Sur 9 Sur 0 -- -- 46
2017-09-11 22:00:00 23.3 2 Sudoeste 8 Sur 0 -- -- 47
2017-09-11 21:00:00 27.3 4 Sur 12 Oeste 0 -- -- 37
2017-09-11 20:00:00 32.8 7 Oeste 19 Oeste 0 -- -- 23
2017-09-11 19:00:00 35.2 11 Oeste 30 Sudoeste 0 -- -- 22
2017-09-11 18:00:00 36.8 16 Oeste 32 Noroeste 0 -- -- 21
2017-09-11 17:00:00 37.5 17 Noroeste 27 Noroeste 0 -- -- 20
2017-09-11 16:00:00 37.1 9 Noroeste 22 Sudoeste 0 -- -- 23
2017-09-11 15:00:00 36 12 Oeste 25 Oeste 0 -- -- 24
2017-09-11 14:00:00 34.6 12 Oeste 24 Sudoeste 0 -- -- 26
2017-09-11 13:00:00 33.3 13 Oeste 25 Oeste 0 -- -- 28
2017-09-11 12:00:00 30.6 10 Sudoeste 19 Sudoeste 0 -- -- 28
2017-09-11 11:00:00 27.8 8 Sudoeste 21 Sudoeste 0 -- -- 32
2017-09-11 10:00:00 24.9 9 Sur 17 Sudoeste 0 -- -- 37
2017-09-11 09:00:00 21.6 8 Sur 15 Sur 0 -- -- 43
2017-09-11 08:00:00 18.3 9 Sur 17 Sur 0 -- -- 46
2017-09-11 07:00:00 18.4 9 Sur 19 Sur 0 -- -- 45
2017-09-11 06:00:00 17.9 8 Sur 13 Sur 0 -- -- 47
2017-09-11 05:00:00 18.6 9 Sur 17 Sur 0 -- -- 45
2017-09-11 04:00:00 19.1 10 Sur 17 Sudeste 0 -- -- 44
2017-09-11 03:00:00 18.8 10 Sur 14 Sudeste 0 -- -- 47
2017-09-11 02:00:00 18.6 6 Sur 17 Sur 0 -- -- 51
2017-09-11 01:00:00 16.4 6 Sudeste 10 Sur 0 -- -- 66
2017-09-11 00:00:00 16.3 3 Sudoeste 8 Sudoeste 0 -- -- 69
2017-09-10 23:00:00 17 2 Sudeste 6 Este 0 -- -- 69
2017-09-10 22:00:00 18.6 4 Sudoeste 8 Sudoeste 0 -- -- 60
2017-09-10 21:00:00 21.4 3 Sudeste 12 Sur 0 -- -- 49
2017-09-10 20:00:00 25.5 6 Nordeste 14 Este 0 -- -- 35
2017-09-10 19:00:00 27.8 9 Nordeste 24 Nordeste 0 -- -- 29
2017-09-10 18:00:00 29.1 14 Norte 29 Noroeste 0 -- -- 25
2017-09-10 17:00:00 29.5 17 Norte 31 Norte 0 -- -- 26
2017-09-10 16:00:00 29.2 15 Norte 28 Norte 0 -- -- 27
2017-09-10 15:00:00 28.5 15 Norte 26 Norte 0 -- -- 29
2017-09-10 14:00:00 27.4 10 Norte 23 Noroeste 0 -- -- 32
2017-09-10 13:00:00 26.1 14 Noroeste 28 Noroeste 0 -- -- 33
2017-09-10 12:00:00 24.7 8 Noroeste 26 Oeste 0 -- -- 36
2017-09-10 11:00:00 22.7 16 Oeste 30 Oeste 0 -- -- 41
2017-09-10 10:00:00 20.2 4 Sudoeste 8 Sudoeste 0 -- -- 54
2017-09-10 09:00:00 16.8 5 Sur 11 Sur 0 -- -- 71
2017-09-10 08:00:00 13.5 6 Sur 11 Sur 0 -- -- 85
2017-09-10 07:00:00 14.4 8 Sur 14 Sudeste 0 -- -- 86
2017-09-10 06:00:00 14.6 9 Sur 13 Sur 0 -- -- 90
2017-09-10 05:00:00 14.9 4 Sur 10 Sudoeste 0 -- -- 87
2017-09-10 04:00:00 15.9 3 Sudoeste 6 Nordeste 0 -- -- 82
2017-09-10 03:00:00 17.2 10 Nordeste 28 Este 0 -- -- 74
2017-09-10 02:00:00 19.6 15 Nordeste 35 Nordeste 0 -- -- 63
2017-09-10 01:00:00 20.9 6 Nordeste 16 Nordeste 0 -- -- 60
2017-09-10 00:00:00 22.1 9 Nordeste 23 Este 0 -- -- 60
2017-09-09 23:00:00 21.7 11 Este 20 Este 0 -- -- 68
2017-09-09 22:00:00 21.8 6 Nordeste 15 Este 0 -- -- 65
2017-09-09 21:00:00 22.7 8 Este 21 Este 0 -- -- 63
2017-09-09 20:00:00 23 8 Nordeste 35 Este 0 -- -- 63
2017-09-09 19:00:00 24.2 22 Nordeste 41 Nordeste 0 -- -- 62
2017-09-09 18:00:00 25.7 10 Nordeste 21 Nordeste 0 -- -- 44
2017-09-09 17:00:00 24.6 8 Sur 11 Sur 0 -- -- 45
2017-09-09 16:00:00 26.5 7 Sudoeste 22 Oeste 0 -- -- 32
2017-09-09 15:00:00 27.6 6 Sur 16 Noroeste 0 -- -- 33
2017-09-09 14:00:00 28.6 8 Noroeste 21 Noroeste 0 -- -- 30
2017-09-09 13:00:00 29.6 9 Noroeste 28 Oeste 0 -- -- 28
2017-09-09 12:00:00 29.2 10 Noroeste 23 Noroeste 0 -- -- 30
2017-09-09 11:00:00 28.9 6 Oeste 17 Sur 0 -- -- 41
2017-09-09 10:00:00 25.7 7 Sur 15 Sudoeste 0 -- -- 62
2017-09-09 09:00:00 21.3 5 Sur 15 Sur 0 -- -- 87
2017-09-09 08:00:00 19.2 10 Sur 15 Sur 0 -- -- 93
2017-09-09 07:00:00 19.1 3 Sur 12 Sur 0 -- -- 92
2017-09-09 06:00:00 19.7 3 Sudoeste 14 Sur 0 -- -- 92
2017-09-09 05:00:00 20 6 Sur 12 Sudeste 0 -- -- 94
2017-09-09 04:00:00 20.3 0 Calma 8 Sur 0 -- -- 92
2017-09-09 03:00:00 21.4 2 Sur 10 Sur 0 -- -- 91
2017-09-09 02:00:00 22 5 Sur 7 Sudeste 0 -- -- 91
2017-09-09 01:00:00 22.9 0 Calma 9 Norte 0 -- -- 88
2017-09-09 00:00:00 24 6 Norte 12 Nordeste 0 -- -- 84
2017-09-08 23:00:00 24.7 8 Norte 16 Norte 0 -- -- 83
2017-09-08 22:00:00 25.6 5 Norte 13 Noroeste 0 -- -- 80
2017-09-08 21:00:00 26.6 7 Noroeste 19 Norte 0 -- -- 75
2017-09-08 20:00:00 29 8 Norte 14 Norte 0 -- -- 67
2017-09-08 19:00:00 30.6 10 Nordeste 15 Nordeste 0 -- -- 61
2017-09-08 18:00:00 30.4 10 Este 29 Este 0 -- -- 61
2017-09-08 17:00:00 29.8 16 Sudeste 29 Sudeste 0 -- -- 63
2017-09-08 16:00:00 30.9 14 Este 30 Nordeste 0 -- -- 61
2017-09-08 15:00:00 31.4 13 Nordeste 23 Nordeste 0 -- -- 60
2017-09-08 14:00:00 30.8 10 Nordeste 22 Nordeste 0 -- -- 61
2017-09-08 13:00:00 29.1 5 Norte 15 Noroeste 0 -- -- 63
2017-09-08 12:00:00 27.9 4 Sudeste 14 Norte 0 -- -- 69
2017-09-08 11:00:00 26.3 4 Nordeste 9 Nordeste 0 -- -- 79
2017-09-08 10:00:00 23.9 0 Calma 4 Sudoeste 0 -- -- 87
2017-09-08 09:00:00 22.8 3 Sur 6 Sur 0 -- -- 90
2017-09-08 08:00:00 22.4 0 Calma 7 Sudoeste 0 -- -- 90
2017-09-08 07:00:00 22.8 3 Sudoeste 6 Noroeste 0 -- -- 90
2017-09-08 06:00:00 22.9 3 Noroeste 5 Oeste 0 -- -- 90
2017-09-08 05:00:00 22.6 0 Calma 4 Nordeste 0 -- -- 92
2017-09-08 04:00:00 21.8 0 Calma 3 Sudeste 0 -- -- 90
2017-09-08 03:00:00 22.6 0 Calma 5 Sur 0 -- -- 87
2017-09-08 02:00:00 23.7 0 Calma 5 Sur 0 -- -- 87
2017-09-08 01:00:00 24 2 Norte 11 Nordeste 0 -- -- 86
2017-09-08 00:00:00 23.9 6 Nordeste 13 Norte 0 -- -- 87
2017-09-07 23:00:00 23.5 7 Nordeste 13 Nordeste 0 -- -- 87
2017-09-07 22:00:00 23.9 7 Nordeste 13 Nordeste 0 -- -- 84
2017-09-07 21:00:00 24.8 9 Nordeste 14 Norte 0 -- -- 79
2017-09-07 20:00:00 26.3 7 Este 16 Este 0 -- -- 74
2017-09-07 19:00:00 27.9 9 Este 19 Este 0 -- -- 67
2017-09-07 18:00:00 28.1 12 Este 23 Este 0 -- -- 65
2017-09-07 17:00:00 28.3 14 Este 28 Este 0 -- -- 64
2017-09-07 16:00:00 28.3 14 Este 26 Este 0 -- -- 65
2017-09-07 15:00:00 29 10 Este 23 Este 0 -- -- 63
2017-09-07 14:00:00 29.6 14 Nordeste 30 Nordeste 0 -- -- 62
2017-09-07 13:00:00 28.3 11 Norte 21 Nordeste 0 -- -- 64
2017-09-07 12:00:00 27.2 13 Nordeste 21 Nordeste 0 -- -- 70
2017-09-07 11:00:00 26.1 6 Nordeste 13 Nordeste 0 -- -- 74
2017-09-07 10:00:00 23.8 6 Norte 13 Noroeste 0 -- -- 84
2017-09-07 09:00:00 22 2 Este 9 Nordeste 0 -- -- 94
2017-09-07 08:00:00 20.4 3 Sur 5 Sur 0 -- -- 94
2017-09-07 07:00:00 20.7 0 Calma 6 Norte 0 -- -- 93
2017-09-07 06:00:00 20.8 0 Calma 3 Sur 0 -- -- 92
2017-09-07 05:00:00 21.3 0 Calma 5 Sur 0 -- -- 91
2017-09-07 04:00:00 22 3 Sur 5 Sudeste 0 -- -- 91
2017-09-07 03:00:00 22.5 0 Calma 3 Sudoeste 0 -- -- 89
2017-09-07 02:00:00 22.9 0 Calma 6 Sudeste 0 -- -- 89
2017-09-07 01:00:00 23.4 2 Este 9 Nordeste 0 -- -- 87
2017-09-07 00:00:00 23.8 4 Nordeste 8 Norte 0 -- -- 86
2017-09-06 23:00:00 24.1 4 Nordeste 13 Nordeste 0 -- -- 84
2017-09-06 22:00:00 24.5 4 Noroeste 12 Norte 0 -- -- 80
2017-09-06 21:00:00 24.9 6 Norte 10 Norte 0 -- -- 77
2017-09-06 20:00:00 25.6 8 Nordeste 21 Nordeste 0 -- -- 77
2017-09-06 19:00:00 26.3 10 Nordeste 21 Nordeste 0 -- -- 76
2017-09-06 18:00:00 27.4 14 Nordeste 24 Nordeste 0 -- -- 73
2017-09-06 17:00:00 29.2 11 Este 27 Nordeste 0 -- -- 65
2017-09-06 16:00:00 31.3 14 Nordeste 27 Norte 0 -- -- 62
2017-09-06 15:00:00 30.7 15 Nordeste 28 Nordeste 0 -- -- 62
2017-09-06 14:00:00 30.3 15 Nordeste 28 Norte 0 -- -- 63
2017-09-06 13:00:00 29.9 11 Nordeste 20 Nordeste 0 -- -- 60
2017-09-06 12:00:00 28.6 8 Norte 14 Norte 0 -- -- 65
2017-09-06 11:00:00 25.9 3 Norte 8 Oeste 0 -- -- 73
2017-09-06 10:00:00 24.3 4 Oeste 8 Oeste 0 -- -- 80
2017-09-06 09:00:00 22.2 4 Sur 6 Sur 0 -- -- 92
2017-09-06 08:00:00 20.7 5 Sudoeste 7 Sudoeste 0 -- -- 93
2017-09-06 07:00:00 20.9 0 Calma 6 Sur 0 -- -- 91
2017-09-06 06:00:00 21.6 4 Sur 9 Sudoeste 0 -- -- 91
2017-09-06 05:00:00 21.7 5 Sur 8 Sur 0 -- -- 90
2017-09-06 04:00:00 22.5 3 Sur 7 Sur 0 -- -- 89
2017-09-06 03:00:00 22.9 3 Sudeste 5 Sudeste 0 -- -- 90
2017-09-06 02:00:00 22.9 4 Sur 8 Sur 0 -- -- 90
2017-09-06 01:00:00 23.1 0 Calma 10 Norte 0 -- -- 88
2017-09-06 00:00:00 23.8 4 Noroeste 13 Nordeste 0 -- -- 85
2017-09-05 23:00:00 24.1 6 Norte 17 Norte 0 -- -- 85
2017-09-05 22:00:00 24.8 9 Noroeste 17 Norte 0 -- -- 84
2017-09-05 21:00:00 26.3 10 Nordeste 17 Norte 0 -- -- 77
2017-09-05 20:00:00 28.4 4 Este 17 Este 0 -- -- 66
2017-09-05 19:00:00 29.2 12 Sudeste 26 Este 0 -- -- 64
2017-09-05 18:00:00 30.2 14 Este 30 Este 0 -- -- 58
2017-09-05 17:00:00 31.1 14 Este 28 Este 0 -- -- 56
2017-09-05 16:00:00 31.5 13 Este 23 Nordeste 0 -- -- 54
2017-09-05 15:00:00 32.2 12 Nordeste 23 Nordeste 0 -- -- 56
2017-09-05 14:00:00 31.1 9 Norte 17 Norte 0 -- -- 56
2017-09-05 13:00:00 30.4 6 Nordeste 13 Norte 0 -- -- 58
2017-09-05 12:00:00 28.4 4 Sudoeste 9 Sudoeste 0 -- -- 63
2017-09-05 11:00:00 26.7 4 Oeste 9 Oeste 0 -- -- 74
2017-09-05 10:00:00 25.5 4 Oeste 8 Sudoeste 0 -- -- 80
2017-09-05 09:00:00 23.5 5 Sur 7 Sudeste 0 -- -- 91
2017-09-05 08:00:00 22 0 Calma 0 Calma 0 -- -- 93
2017-09-05 07:00:00 22.1 0 Calma 5 Sudeste 0 -- -- 93
2017-09-05 06:00:00 22.1 0 Calma 4 Sudeste 0 -- -- 93
2017-09-05 05:00:00 22 0 Calma 4 Sudeste 0 -- -- 93
2017-09-05 04:00:00 21.7 0 Calma 5 Sur 0 -- -- 93
2017-09-05 03:00:00 21.7 0 Calma 6 Sur 0 -- -- 92
2017-09-05 02:00:00 21.8 2 Sur 5 Sur 0 -- -- 91
2017-09-05 01:00:00 22.3 0 Calma 5 Nordeste 0 -- -- 88
2017-09-05 00:00:00 23.6 3 Este 10 Norte 0 -- -- 86
2017-09-04 23:00:00 24.3 6 Nordeste 14 Nordeste 0 -- -- 84
2017-09-04 22:00:00 25 8 Nordeste 17 Nordeste 0 -- -- 82
2017-09-04 21:00:00 25.9 6 Nordeste 14 Norte 0 -- -- 79
2017-09-04 20:00:00 27.4 9 Nordeste 19 Nordeste 0 -- -- 71
2017-09-04 19:00:00 28.9 10 Nordeste 27 Nordeste 0 -- -- 65
2017-09-04 18:00:00 30.6 14 Nordeste 27 Nordeste 0 -- -- 57
2017-09-04 17:00:00 31.7 14 Nordeste 26 Nordeste 0 -- -- 49
2017-09-04 16:00:00 31.5 14 Nordeste 30 Nordeste 0 -- -- 48
2017-09-04 15:00:00 31 18 Nordeste 29 Nordeste 0 -- -- 54
2017-09-04 14:00:00 31 12 Nordeste 26 Nordeste 0 -- -- 53
2017-09-04 13:00:00 29.9 7 Norte 17 Norte 0 -- -- 50
2017-09-04 12:00:00 28.2 11 Nordeste 17 Nordeste 0 -- -- 58
2017-09-04 11:00:00 25.3 4 Norte 11 Norte 0 -- -- 73
2017-09-04 10:00:00 22.5 4 Sudoeste 7 Sudoeste 0 -- -- 91
2017-09-04 09:00:00 20.1 4 Sur 10 Sur 0 -- -- 96
2017-09-04 08:00:00 18.6 4 Sur 8 Sur 0 -- -- 95
2017-09-04 07:00:00 18.5 2 Sudoeste 7 Sur 0 -- -- 94
2017-09-04 06:00:00 18.9 4 Sur 5 Sudeste 0 -- -- 93
2017-09-04 05:00:00 19.2 3 Sur 5 Sudeste 0 -- -- 92
2017-09-04 04:00:00 19.6 0 Calma 4 Sur 0 -- -- 92
2017-09-04 03:00:00 19.7 0 Calma 4 Sudoeste 0 -- -- 89
2017-09-04 02:00:00 20.5 4 Sudeste 5 Sudeste 0 -- -- 89
2017-09-04 01:00:00 21.4 4 Sur 5 Sur 0 -- -- 89
2017-09-04 00:00:00 22.7 0 Calma 11 Nordeste 0 -- -- 84
2017-09-03 23:00:00 23.8 5 Norte 15 Nordeste 0 -- -- 82
2017-09-03 22:00:00 24.2 9 Norte 26 Norte 0 -- -- 84
2017-09-03 21:00:00 25.3 17 Norte 30 Nordeste 0 -- -- 82
2017-09-03 20:00:00 29.1 13 Nordeste 26 Norte 0 -- -- 62
2017-09-03 19:00:00 33.9 5 Sudeste 17 Sur 0 -- -- 38
2017-09-03 18:00:00 34.5 8 Sudeste 14 Este 0 -- -- 37
2017-09-03 17:00:00 33.6 6 Nordeste 11 Este 0 -- -- 41
2017-09-03 16:00:00 32.9 5 Sudeste 10 Sudeste 0 -- -- 48
2017-09-03 15:00:00 31.3 4 Sur 17 Sudeste 0 -- -- 49
2017-09-03 14:00:00 30 6 Sudeste 14 Sudeste 0 -- -- 55
2017-09-03 13:00:00 27.5 6 Sur 16 Sudoeste 0 -- -- 62
2017-09-03 12:00:00 25.4 5 Sur 9 Sur 0 -- -- 68
2017-09-03 11:00:00 23.3 3 Oeste 12 Sudoeste 0 -- -- 76
2017-09-03 10:00:00 21.5 6 Sudoeste 14 Sudoeste 0 -- -- 84
2017-09-03 09:00:00 18.7 5 Sudoeste 11 Sur 0 -- -- 93
2017-09-03 08:00:00 16.9 3 Sur 7 Sudoeste 0 -- -- 93
2017-09-03 07:00:00 17.4 6 Sur 11 Sur 0 -- -- 93
2017-09-03 06:00:00 17.3 8 Sur 11 Sur 0 -- -- 94
2017-09-03 05:00:00 17.1 4 Sur 8 Sur 0 -- -- 93
2017-09-03 04:00:00 17.3 3 Sur 5 Sur 0 -- -- 91
2017-09-03 03:00:00 17.5 2 Sur 5 Sudoeste 0 -- -- 90
2017-09-03 02:00:00 18.2 2 Sudoeste 7 Sudeste 0 -- -- 89
2017-09-03 01:00:00 18.7 5 Sudeste 7 Sur 0 -- -- 89
2017-09-03 00:00:00 19.5 2 Sur 8 Sur 0 -- -- 87
2017-09-02 23:00:00 20.4 2 Sur 7 Sudeste 0 -- -- 83
2017-09-02 22:00:00 21.9 3 Este 12 Norte 0 -- -- 78
2017-09-02 21:00:00 23.8 7 Nordeste 14 Nordeste 0 -- -- 66
2017-09-02 20:00:00 26.5 7 Este 16 Este 0 -- -- 57
2017-09-02 19:00:00 27.7 10 Sudeste 24 Sudeste 0 -- -- 53
2017-09-02 18:00:00 28.4 14 Sudeste 27 Sudeste 0 -- -- 50
2017-09-02 17:00:00 29.3 13 Sudeste 27 Este 0 -- -- 48
2017-09-02 16:00:00 30.1 10 Sudeste 25 Este 0 -- -- 48
2017-09-02 15:00:00 29.6 4 Sudeste 15 Sudoeste 0 -- -- 50
2017-09-02 14:00:00 28 7 Sudeste 17 Sudeste 0 -- -- 51
2017-09-02 13:00:00 27 6 Sudeste 14 Sudeste 0 -- -- 54
2017-09-02 12:00:00 26.2 3 Sur 12 Sudeste 0 -- -- 55
2017-09-02 11:00:00 25 4 Sudeste 9 Sudeste 0 -- -- 62
2017-09-02 10:00:00 23 4 Sur 8 Oeste 0 -- -- 73
2017-09-02 09:00:00 20.7 4 Sur 5 Sur 0 -- -- 94
2017-09-02 08:00:00 19.9 4 Sudeste 10 Sudeste 0 -- -- 95
2017-09-02 07:00:00 19.3 6 Sur 8 Sur 0 -- -- 94
2017-09-02 06:00:00 19.8 5 Sur 8 Sur 0 -- -- 94
2017-09-02 05:00:00 20.2 4 Sur 9 Sudeste 0 -- -- 93
2017-09-02 04:00:00 20.7 3 Sur 9 Nordeste 0 -- -- 92
2017-09-02 03:00:00 20.5 7 Norte 11 Norte 0 -- -- 92
2017-09-02 02:00:00 20.8 6 Este 26 Norte 0.2 -- -- 93
2017-09-02 01:00:00 21.7 12 Nordeste 23 Norte 1.6 -- -- 92
2017-09-02 00:00:00 23.8 4 Nordeste 9 Nordeste 0 -- -- 80
2017-09-01 23:00:00 23.9 2 Este 13 Nordeste 0 -- -- 79
2017-09-01 22:00:00 23.6 4 Nordeste 13 Este 0 -- -- 81
2017-09-01 21:00:00 24.2 8 Nordeste 26 Este 0 -- -- 78
2017-09-01 20:00:00 25.4 11 Nordeste 19 Nordeste 0 -- -- 73
2017-09-01 19:00:00 26.3 9 Este 18 Este 0 -- -- 66
2017-09-01 18:00:00 28 9 Nordeste 21 Nordeste 0 -- -- 56
2017-09-01 17:00:00 27.7 5 Este 17 Este 0 -- -- 55
2017-09-01 16:00:00 27.8 9 Nordeste 24 Nordeste 0 -- -- 57
2017-09-01 15:00:00 26.3 10 Nordeste 21 Nordeste 0 -- -- 60
2017-09-01 14:00:00 26.2 10 Nordeste 22 Nordeste 0 -- -- 60
2017-09-01 13:00:00 26.2 12 Nordeste 21 Nordeste 0 -- -- 62
2017-09-01 12:00:00 24.3 13 Nordeste 22 Nordeste 0 -- -- 66
2017-09-01 11:00:00 22.9 2 Nordeste 5 Nordeste 0 -- -- 83
2017-09-01 10:00:00 21.7 0 Calma 4 Sudeste 0 -- -- 92
2017-09-01 09:00:00 21.1 0 Calma 5 Sur 0 -- -- 94
2017-09-01 08:00:00 20.5 2 Sur 5 Sur 0 -- -- 94
2017-09-01 07:00:00 20.1 0 Calma 4 Este 0 -- -- 91
2017-09-01 06:00:00 20.6 2 Este 4 Este 0 -- -- 90
2017-09-01 05:00:00 21.4 3 Este 5 Este 0 -- -- 90
2017-09-01 04:00:00 21.8 3 Nordeste 8 Norte 0 -- -- 87
2017-09-01 03:00:00 22.7 5 Norte 12 Norte 0 -- -- 85
2017-09-01 02:00:00 23.2 6 Norte 10 Noroeste 0 -- -- 85
2017-09-01 01:00:00 23.4 5 Norte 9 Norte 0 -- -- 85
2017-09-01 00:00:00 23.5 4 Norte 11 Nordeste 0 -- -- 85
2017-08-31 23:00:00 23.7 7 Nordeste 20 Nordeste 0 -- -- 84
2017-08-31 22:00:00 24 8 Nordeste 21 Nordeste 0 -- -- 79
2017-08-31 21:00:00 24.6 11 Nordeste 21 Nordeste 0 -- -- 75
2017-08-31 20:00:00 26.8 11 Nordeste 20 Este 0 -- -- 65
2017-08-31 19:00:00 29.3 8 Nordeste 17 Nordeste 0 -- -- 59
2017-08-31 18:00:00 29.4 8 Nordeste 18 Nordeste 0 -- -- 64
2017-08-31 17:00:00 30 10 Nordeste 21 Nordeste 0 -- -- 61
2017-08-31 16:00:00 28 5 Nordeste 16 Nordeste 0 -- -- 65
2017-08-31 15:00:00 28.2 6 Nordeste 19 Este 0 -- -- 61
2017-08-31 14:00:00 26.3 8 Nordeste 14 Nordeste 0 -- -- 73
2017-08-31 13:00:00 24.8 3 Sudoeste 9 Sur 0 -- -- 71
2017-08-31 12:00:00 23.9 2 Nordeste 12 Sudoeste 0.2 -- -- 75
2017-08-31 11:00:00 24 5 Oeste 10 Oeste 0.2 -- -- 78
2017-08-31 10:00:00 23.5 5 Sur 9 Sur 0 -- -- 73
2017-08-31 09:00:00 22.1 5 Sur 12 Sudoeste 0 -- -- 77
2017-08-31 08:00:00 21.4 4 Sur 12 Sudoeste 0 -- -- 79
2017-08-31 07:00:00 21.8 8 Sur 19 Sur 0 -- -- 76
2017-08-31 06:00:00 21.1 10 Sur 15 Sur 0 -- -- 79
2017-08-31 05:00:00 21 10 Sur 14 Sur 0 -- -- 79
2017-08-31 04:00:00 21.5 7 Sur 12 Sur 0 -- -- 77
2017-08-31 03:00:00 21.9 8 Sur 12 Sur 0 -- -- 77
2017-08-31 02:00:00 22.7 7 Sur 12 Sur 0 -- -- 73
2017-08-31 01:00:00 23.1 6 Sudoeste 11 Sur 0 -- -- 70
2017-08-31 00:00:00 23.7 6 Sudoeste 14 Sur 0 -- -- 66
2017-08-30 23:00:00 23.7 6 Sur 11 Sur 0 -- -- 67
2017-08-30 22:00:00 24.4 7 Sur 14 Sur 0 -- -- 65
2017-08-30 21:00:00 25 4 Sur 12 Sudoeste 0 -- -- 63
2017-08-30 20:00:00 26.3 7 Sur 12 Sur 0 -- -- 60
2017-08-30 19:00:00 27.7 8 Sur 21 Sur 0 -- -- 52
2017-08-30 18:00:00 28.9 11 Sur 19 Sudoeste 0 -- -- 50
2017-08-30 17:00:00 28.2 11 Sur 29 Sur 0 -- -- 55
2017-08-30 16:00:00 27.4 18 Sur 29 Sur 0 -- -- 60
2017-08-30 15:00:00 26.5 8 Sur 19 Sur 0 -- -- 66
2017-08-30 14:00:00 24.4 8 Sudoeste 14 Sudoeste 0 -- -- 77
2017-08-30 13:00:00 22.8 5 Sudoeste 12 Sudeste 0.2 -- -- 87
2017-08-30 12:00:00 21.4 5 Sudeste 11 Sudoeste 0 -- -- 93
2017-08-30 11:00:00 20.2 7 Sudoeste 12 Sudoeste 0 -- -- 95
2017-08-30 10:00:00 19.7 6 Sur 13 Oeste 0 -- -- 96
2017-08-30 09:00:00 19.4 2 Sudoeste 10 Sur 0.2 -- -- 96
2017-08-30 08:00:00 19.2 3 Sur 10 Sur 0 -- -- 97
2017-08-30 07:00:00 19 6 Oeste 12 Nordeste 0.4 -- -- 96
2017-08-30 06:00:00 19.2 5 Sudoeste 12 Sudeste 0.8 -- -- 96
2017-08-30 05:00:00 19.1 7 Sur 13 Sur 0.2 -- -- 95
2017-08-30 04:00:00 19.3 4 Sudeste 17 Noroeste 0.2 -- -- 94
2017-08-30 03:00:00 19.1 5 Nordeste 20 Este 0.4 -- -- 91
2017-08-30 02:00:00 19.4 6 Este 14 Sur 1.8 -- -- 95
2017-08-30 01:00:00 19.8 9 Sur 19 Sur 1.8 -- -- 93
2017-08-30 00:00:00 20.3 8 Sur 12 Oeste 1.8 -- -- 95
2017-08-29 23:00:00 20.4 6 Oeste 15 Oeste 1.2 -- -- 94
2017-08-29 22:00:00 20.4 0 Calma 12 Noroeste 0 -- -- 92
2017-08-29 21:00:00 20.9 8 Este 14 Este 0.2 -- -- 92
2017-08-29 20:00:00 21.6 5 Nordeste 10 Nordeste 0.2 -- -- 90
2017-08-29 19:00:00 21.5 8 Nordeste 15 Nordeste 0 -- -- 89
2017-08-29 18:00:00 21.7 5 Nordeste 11 Sudoeste 1.4 -- -- 89
2017-08-29 17:00:00 22.4 2 Noroeste 15 Noroeste 0.8 -- -- 85
2017-08-29 16:00:00 23.4 0 Calma 7 Oeste 0 -- -- 91
2017-08-29 15:00:00 23.2 5 Norte 10 Norte 0.8 -- -- 89
2017-08-29 14:00:00 23.3 4 Sudeste 7 Sudeste 0 -- -- 89
2017-08-29 13:00:00 23.4 4 Oeste 10 Noroeste 0.4 -- -- 85
2017-08-29 12:00:00 23.3 5 Sur 10 Sur 0 -- -- 85
2017-08-29 11:00:00 23.3 4 Sur 10 Sudoeste 0 -- -- 85
2017-08-29 10:00:00 22.7 5 Sudoeste 10 Sudoeste 0 -- -- 81
2017-08-29 09:00:00 22 6 Sur 10 Sur 0 -- -- 84
2017-08-29 08:00:00 19.8 3 Sur 8 Sudeste 0 -- -- 93
2017-08-29 07:00:00 20 3 Sudoeste 12 Nordeste 0 -- -- 90
2017-08-29 06:00:00 20.8 3 Sudoeste 12 Sur 0.2 -- -- 88
2017-08-29 05:00:00 20.6 6 Sur 11 Sur 0 -- -- 86
2017-08-29 04:00:00 19.9 3 Sur 9 Sur 0 -- -- 88
2017-08-29 03:00:00 20.1 3 Sur 5 Sur 0 -- -- 89
2017-08-29 02:00:00 20.9 2 Sur 8 Sudeste 0 -- -- 87
2017-08-29 01:00:00 21.9 4 Sur 8 Sudeste 0 -- -- 87
2017-08-29 00:00:00 23.4 3 Sudeste 7 Sudeste 0 -- -- 90
2017-08-28 23:00:00 24.6 0 Calma 11 Noroeste 0 -- -- 88
2017-08-28 22:00:00 25.3 0 Calma 6 Nordeste 0 -- -- 84
2017-08-28 21:00:00 26.3 4 Nordeste 10 Norte 0 -- -- 82
2017-08-28 20:00:00 27.5 6 Noroeste 13 Norte 0 -- -- 79
2017-08-28 19:00:00 28.4 5 Norte 9 Noroeste 0 -- -- 74
2017-08-28 18:00:00 28.7 3 Sudeste 16 Este 0 -- -- 72
2017-08-28 17:00:00 28 9 Sudeste 25 Este 0 -- -- 75
2017-08-28 16:00:00 28.2 12 Este 22 Este 0 -- -- 74
2017-08-28 15:00:00 29.1 9 Este 21 Nordeste 0 -- -- 71
2017-08-28 14:00:00 30.7 9 Nordeste 16 Nordeste 0 -- -- 64
2017-08-28 13:00:00 31.9 12 Noroeste 20 Noroeste 0 -- -- 59
2017-08-28 12:00:00 29.7 10 Noroeste 16 Noroeste 0 -- -- 67
2017-08-28 11:00:00 28.3 3 Noroeste 9 Nordeste 0 -- -- 70
2017-08-28 10:00:00 26.7 4 Nordeste 7 Nordeste 0 -- -- 78
2017-08-28 09:00:00 23.8 2 Sudeste 9 Sur 0 -- -- 90
2017-08-28 08:00:00 22.7 5 Sur 9 Sudeste 0 -- -- 91
2017-08-28 07:00:00 23 3 Sur 7 Sur 0 -- -- 94
2017-08-28 06:00:00 22.7 4 Sudeste 6 Sudeste 0 -- -- 95
2017-08-28 05:00:00 21.7 4 Sudeste 6 Sudeste 0 -- -- 93
2017-08-28 04:00:00 21.7 3 Sudeste 5 Sudeste 0 -- -- 91
2017-08-28 03:00:00 22.4 2 Sur 5 Nordeste 0 -- -- 90
2017-08-28 02:00:00 23.1 4 Este 6 Sudoeste 0 -- -- 88
2017-08-28 01:00:00 24.5 3 Sur 10 Nordeste 0 -- -- 83
2017-08-28 00:00:00 25.6 3 Este 12 Norte 0 -- -- 82
2017-08-27 23:00:00 25.3 9 Norte 17 Norte 0 -- -- 80
2017-08-27 22:00:00 25.7 5 Sudeste 7 Sudeste 0 -- -- 78
2017-08-27 21:00:00 27 3 Este 8 Sudeste 0 -- -- 73
2017-08-27 20:00:00 28.8 5 Nordeste 15 Noroeste 0 -- -- 65
2017-08-27 19:00:00 30.1 8 Nordeste 12 Nordeste 0 -- -- 61
2017-08-27 18:00:00 29.9 3 Nordeste 12 Nordeste 0 -- -- 63
2017-08-27 17:00:00 28.7 8 Norte 13 Norte 0 -- -- 70
2017-08-27 16:00:00 28.6 9 Norte 23 Nordeste 0 -- -- 71
2017-08-27 15:00:00 29.2 15 Nordeste 24 Nordeste 0 -- -- 69
2017-08-27 14:00:00 28.2 9 Norte 16 Norte 0 -- -- 72
2017-08-27 13:00:00 28.3 11 Noroeste 18 Noroeste 0 -- -- 73
2017-08-27 12:00:00 28.1 7 Norte 12 Norte 0 -- -- 75
2017-08-27 11:00:00 26.9 5 Oeste 9 Noroeste 0 -- -- 79
2017-08-27 10:00:00 25.5 5 Oeste 9 Sur 0 -- -- 85
2017-08-27 09:00:00 24.2 4 Sur 9 Sur 0 -- -- 93
2017-08-27 08:00:00 22.3 3 Sur 6 Sudeste 0 -- -- 94
2017-08-27 07:00:00 21.8 4 Sur 6 Sur 0 -- -- 92
2017-08-27 06:00:00 22.4 0 Calma 4 Oeste 0 -- -- 91
2017-08-27 05:00:00 23.4 0 Calma 9 Noroeste 0 -- -- 90
2017-08-27 04:00:00 24.5 3 Noroeste 12 Noroeste 0 -- -- 87
2017-08-27 03:00:00 24.9 5 Este 11 Este 0 -- -- 87
2017-08-27 02:00:00 25.3 8 Sudeste 14 Este 0 -- -- 87
2017-08-27 01:00:00 24.9 7 Oeste 13 Oeste 0 -- -- 86
2017-08-27 00:00:00 25.4 3 Norte 5 Nordeste 0 -- -- 82
2017-08-26 23:00:00 25.8 5 Este 10 Nordeste 0 -- -- 83
2017-08-26 22:00:00 25.9 8 Este 21 Nordeste 0 -- -- 82
2017-08-26 21:00:00 26.3 12 Nordeste 22 Norte 0 -- -- 80
2017-08-26 20:00:00 27.3 10 Norte 20 Nordeste 0 -- -- 77
2017-08-26 19:00:00 28.6 12 Nordeste 25 Nordeste 0 -- -- 73
2017-08-26 18:00:00 30.5 13 Nordeste 24 Norte 0 -- -- 63
2017-08-26 17:00:00 32.4 9 Este 25 Este 0 -- -- 51
2017-08-26 16:00:00 32.5 10 Sudeste 27 Este 0 -- -- 57
2017-08-26 15:00:00 32.2 18 Nordeste 29 Nordeste 0 -- -- 60
2017-08-26 14:00:00 32.6 14 Nordeste 24 Nordeste 0 -- -- 58
2017-08-26 13:00:00 30.9 11 Nordeste 23 Nordeste 0 -- -- 64
2017-08-26 12:00:00 29.9 10 Nordeste 18 Norte 0 -- -- 67
2017-08-26 11:00:00 27.5 3 Noroeste 10 Oeste 0 -- -- 77
2017-08-26 10:00:00 26.4 4 Nordeste 8 Nordeste 0 -- -- 81
2017-08-26 09:00:00 24.5 0 Calma -- -- 0 -- -- 90
2017-08-26 08:00:00 23 0 Calma -- -- 0 -- -- 92
2017-08-26 07:00:00 23 0 Calma -- -- 0 -- -- 91
2017-08-26 06:00:00 23.2 0 Calma -- -- 0 -- -- 91
2017-08-26 05:00:00 23.5 0 Calma -- -- 0 -- -- 90
2017-08-26 04:00:00 24.3 0 Calma 13 Oeste 0 -- -- 89
2017-08-26 03:00:00 24.4 3 Norte 5 Oeste 0 -- -- 87
2017-08-26 02:00:00 24.8 0 Calma 8 Sur 0 -- -- 87
2017-08-26 01:00:00 25.1 5 Oeste 9 Oeste 0 -- -- 85
2017-08-26 00:00:00 25.6 6 Este 15 Nordeste 0 -- -- 84
2017-08-25 23:00:00 26 10 Nordeste 17 Nordeste 0 -- -- 82
2017-08-25 22:00:00 26.2 7 Noroeste 26 Nordeste 0 -- -- 80
2017-08-25 21:00:00 26.4 13 Nordeste 24 Norte 0 -- -- 80
2017-08-25 20:00:00 27.4 14 Norte 24 Norte 0 -- -- 75
2017-08-25 19:00:00 29.7 15 Nordeste 27 Nordeste 0 -- -- 65
2017-08-25 18:00:00 33.2 11 Nordeste 21 Este 0 -- -- 51
2017-08-25 17:00:00 33.2 9 Este 28 Norte 0 -- -- 55
2017-08-25 16:00:00 32.6 18 Norte 27 Norte 0 -- -- 58
2017-08-25 15:00:00 32.9 17 Nordeste 28 Nordeste 0 -- -- 55
2017-08-25 14:00:00 32.2 10 Nordeste 20 Nordeste 0 -- -- 56
2017-08-25 13:00:00 30.7 8 Nordeste 19 Nordeste 0 -- -- 59
2017-08-25 12:00:00 28.6 6 Norte 14 Norte 0 -- -- 65
2017-08-25 11:00:00 26.8 8 Noroeste 12 Noroeste 0 -- -- 74
2017-08-25 10:00:00 25 3 Sur 7 Sur 0 -- -- 79
2017-08-25 09:00:00 23.2 0 Calma -- -- 0 -- -- 87
2017-08-25 08:00:00 21.6 0 Calma -- -- 0 -- -- 91
2017-08-25 07:00:00 21.8 0 Calma 5 Sudeste 0 -- -- 91
2017-08-25 06:00:00 22.2 0 Calma 4 Sudeste 0 -- -- 90
2017-08-25 05:00:00 22.4 0 Calma 5 Sur 0 -- -- 90
2017-08-25 04:00:00 22.8 3 Sur 6 Sur 0 -- -- 89
2017-08-25 03:00:00 22.9 3 Sur 6 Sur 0 -- -- 88
2017-08-25 02:00:00 23.4 4 Sur 6 Sur 0 -- -- 88
2017-08-25 01:00:00 23.2 3 Sudeste 5 Sudeste 0 -- -- 87
2017-08-25 00:00:00 23.7 3 Sudeste 10 Norte 0 -- -- 84
2017-08-24 23:00:00 25 7 Norte 14 Norte 0 -- -- 82
2017-08-24 22:00:00 25.6 7 Norte 15 Nordeste 0 -- -- 77
2017-08-24 21:00:00 27.1 10 Norte 20 Norte 0 -- -- 73
2017-08-24 20:00:00 30.5 9 Norte 17 Este 0 -- -- 54
2017-08-24 19:00:00 32 8 Este 21 Este 0 -- -- 51
2017-08-24 18:00:00 32.6 10 Este 22 Este 0 -- -- 48
2017-08-24 17:00:00 32.9 12 Este 25 Este 0 -- -- 51
2017-08-24 16:00:00 33 13 Este 25 Sudeste 0 -- -- 51
2017-08-24 15:00:00 33.4 8 Este 23 Norte 0 -- -- 52
2017-08-24 14:00:00 31.6 13 Norte 21 Nordeste 0 -- -- 60
2017-08-24 13:00:00 31 9 Nordeste 19 Norte 0 -- -- 58
2017-08-24 12:00:00 28.4 3 Norte 15 Oeste 0 -- -- 65
2017-08-24 11:00:00 27.7 3 Sudeste 9 Sur 0 -- -- 69
2017-08-24 10:00:00 25.5 4 Sur 10 Sur 0 -- -- 79
2017-08-24 09:00:00 23.2 4 Sur 7 Sur 0 -- -- 88
2017-08-24 08:00:00 21.1 0 Calma -- -- 0 -- -- 93
2017-08-24 07:00:00 20.8 0 Calma -- -- 0 -- -- 93
2017-08-24 06:00:00 20.6 0 Calma -- -- 0 -- -- 89
2017-08-24 05:00:00 21.7 0 Calma 3 Sudeste 0 -- -- 89
2017-08-24 04:00:00 22.2 0 Calma 6 Sudeste 0 -- -- 90
2017-08-24 03:00:00 22.4 4 Sur 6 Sur 0 -- -- 91
2017-08-24 02:00:00 22.6 3 Sur 5 Sur 0 -- -- 88
2017-08-24 01:00:00 23.4 3 Sur 9 Noroeste 0 -- -- 87
2017-08-24 00:00:00 24.3 5 Noroeste 11 Norte 0 -- -- 85
2017-08-23 23:00:00 25 7 Norte 16 Noroeste 0 -- -- 84
2017-08-23 22:00:00 25.3 10 Norte 20 Norte 0 -- -- 82
2017-08-23 21:00:00 26.1 11 Norte 24 Norte 0 -- -- 79
2017-08-23 20:00:00 28.6 12 Norte 25 Nordeste 0 -- -- 69
2017-08-23 19:00:00 30.5 15 Nordeste 30 Norte 0 -- -- 63
2017-08-23 18:00:00 31.7 19 Nordeste 28 Nordeste 0 -- -- 57
2017-08-23 17:00:00 33.9 13 Nordeste 27 Este 0 -- -- 51
2017-08-23 16:00:00 33.8 13 Sudeste 23 Este 0 -- -- 52
2017-08-23 15:00:00 33.8 9 Este 25 Nordeste 0 -- -- 51
2017-08-23 14:00:00 32.3 16 Norte 26 Norte 0 -- -- 56
2017-08-23 13:00:00 31.4 12 Norte 20 Norte 0 -- -- 57
2017-08-23 12:00:00 29.8 9 Norte 18 Norte 0 -- -- 60
2017-08-23 11:00:00 27.6 5 Norte 12 Noroeste 0 -- -- 64
2017-08-23 10:00:00 25.2 4 Oeste 9 Sudoeste 0 -- -- 70
2017-08-23 09:00:00 22.4 7 Sur 12 Sur 0 -- -- 74
2017-08-23 08:00:00 19.5 5 Sur 12 Sur 0 -- -- 89
2017-08-23 07:00:00 19.5 7 Sur 12 Sur 0 -- -- 91
2017-08-23 06:00:00 19 5 Sur 7 Sudeste 0 -- -- 91
2017-08-23 05:00:00 19.4 2 Sur 3 Sur 0 -- -- 89
2017-08-23 04:00:00 20.1 2 Sudoeste 5 Sudeste 0 -- -- 88
2017-08-23 03:00:00 21 3 Sudeste 6 Sudeste 0 -- -- 87
2017-08-23 02:00:00 21.9 4 Sur 7 Sur 0 -- -- 85
2017-08-23 01:00:00 22.7 3 Sur 7 Sur 0 -- -- 83
2017-08-23 00:00:00 24 4 Sur 13 Noroeste 0 -- -- 80
2017-08-22 23:00:00 25 5 Noroeste 18 Norte 0 -- -- 78
2017-08-22 22:00:00 25.9 11 Norte 24 Norte 0 -- -- 78
2017-08-22 21:00:00 27.6 14 Norte 27 Norte 0 -- -- 68
2017-08-22 20:00:00 32.1 12 Nordeste 19 Norte 0 -- -- 53
2017-08-22 19:00:00 34.6 9 Este 21 Este 0 -- -- 36
2017-08-22 18:00:00 35.3 10 Este 22 Este 0 -- -- 38
2017-08-22 17:00:00 36 12 Este 21 Este 0 -- -- 39
2017-08-22 16:00:00 35.8 9 Este 21 Este 0 -- -- 39
2017-08-22 15:00:00 35.3 9 Sudeste 23 Este 0 -- -- 39
2017-08-22 14:00:00 34.1 12 Norte 22 Norte 0 -- -- 46
2017-08-22 13:00:00 33.1 12 Nordeste 18 Nordeste 0 -- -- 48
2017-08-22 12:00:00 31 4 Oeste 11 Sudoeste 0 -- -- 53
2017-08-22 11:00:00 28.2 4 Sudoeste 12 Sudoeste 0 -- -- 59
2017-08-22 10:00:00 25.2 7 Sudoeste 15 Sur 0 -- -- 67
2017-08-22 09:00:00 23 6 Sudoeste 13 Sur 0 -- -- 75
2017-08-22 08:00:00 19.1 5 Sur 12 Sudeste 0 -- -- 91
2017-08-22 07:00:00 17.7 5 Sur 8 Sudeste 0 -- -- 91
2017-08-22 06:00:00 17.9 3 Sur 6 Sudeste 0 -- -- 90
2017-08-22 05:00:00 18.3 4 Sur 5 Sudeste 0 -- -- 89
2017-08-22 04:00:00 18.7 0 Calma 5 Sudoeste 0 -- -- 87
2017-08-22 03:00:00 19.3 0 Calma 4 Sudeste 0 -- -- 84
2017-08-22 02:00:00 20.4 4 Sur 9 Sur 0 -- -- 83
2017-08-22 01:00:00 21.4 10 Sur 12 Sur 0 -- -- 83
2017-08-22 00:00:00 22 2 Sudeste 7 Sudoeste 0 -- -- 78